sensor_id;sensor_type;location;lat;lon;timestamp;P1;durP1;ratioP1;P2;durP2;ratioP2
22646;SDS011;11490;42.726;23.268;2022-11-20T00:00:51;1.58;;;1.25;;
22646;SDS011;11490;42.726;23.268;2022-11-20T00:03:17;2.72;;;1.40;;
22646;SDS011;11490;42.726;23.268;2022-11-20T00:05:42;3.30;;;1.52;;
22646;SDS011;11490;42.726;23.268;2022-11-20T00:08:08;2.70;;;1.17;;
22646;SDS011;11490;42.726;23.268;2022-11-20T00:10:35;2.88;;;1.20;;
22646;SDS011;11490;42.726;23.268;2022-11-20T00:13:01;4.05;;;1.48;;
22646;SDS011;11490;42.726;23.268;2022-11-20T00:15:27;2.25;;;1.30;;
22646;SDS011;11490;42.726;23.268;2022-11-20T00:17:52;1.50;;;1.20;;
22646;SDS011;11490;42.726;23.268;2022-11-20T00:20:18;5.95;;;1.38;;
22646;SDS011;11490;42.726;23.268;2022-11-20T00:22:43;2.83;;;1.08;;
22646;SDS011;11490;42.726;23.268;2022-11-20T00:25:09;4.85;;;1.30;;
22646;SDS011;11490;42.726;23.268;2022-11-20T00:27:34;2.78;;;1.50;;
22646;SDS011;11490;42.726;23.268;2022-11-20T00:30:00;1.60;;;1.20;;
22646;SDS011;11490;42.726;23.268;2022-11-20T00:32:25;1.60;;;1.17;;
22646;SDS011;11490;42.726;23.268;2022-11-20T00:34:50;1.52;;;1.10;;
22646;SDS011;11490;42.726;23.268;2022-11-20T00:37:16;4.03;;;1.33;;
22646;SDS011;11490;42.726;23.268;2022-11-20T00:39:41;4.22;;;1.13;;
22646;SDS011;11490;42.726;23.268;2022-11-20T00:42:06;2.15;;;1.42;;
22646;SDS011;11490;42.726;23.268;2022-11-20T00:44:32;2.17;;;1.40;;
22646;SDS011;11490;42.726;23.268;2022-11-20T00:46:57;2.85;;;1.27;;
22646;SDS011;11490;42.726;23.268;2022-11-20T00:49:22;3.50;;;1.50;;
22646;SDS011;11490;42.726;23.268;2022-11-20T00:51:48;5.63;;;1.35;;
22646;SDS011;11490;42.726;23.268;2022-11-20T00:54:13;1.77;;;1.35;;
22646;SDS011;11490;42.726;23.268;2022-11-20T00:56:38;2.33;;;1.58;;
22646;SDS011;11490;42.726;23.268;2022-11-20T00:59:05;7.78;;;1.42;;
22646;SDS011;11490;42.726;23.268;2022-11-20T01:01:30;1.67;;;1.20;;
22646;SDS011;11490;42.726;23.268;2022-11-20T01:03:56;1.67;;;1.27;;
22646;SDS011;11490;42.726;23.268;2022-11-20T01:06:25;6.95;;;1.58;;
22646;SDS011;11490;42.726;23.268;2022-11-20T01:08:53;3.17;;;1.65;;
22646;SDS011;11490;42.726;23.268;2022-11-20T01:11:21;3.83;;;1.13;;
22646;SDS011;11490;42.726;23.268;2022-11-20T01:13:49;1.42;;;1.30;;
22646;SDS011;11490;42.726;23.268;2022-11-20T01:18:44;3.42;;;1.65;;
22646;SDS011;11490;42.726;23.268;2022-11-20T01:21:12;2.15;;;1.50;;
22646;SDS011;11490;42.726;23.268;2022-11-20T01:23:42;1.92;;;1.50;;
22646;SDS011;11490;42.726;23.268;2022-11-20T01:26:10;2.45;;;1.30;;
22646;SDS011;11490;42.726;23.268;2022-11-20T01:28:38;5.45;;;1.50;;
22646;SDS011;11490;42.726;23.268;2022-11-20T01:31:15;4.60;;;1.20;;
22646;SDS011;11490;42.726;23.268;2022-11-20T01:33:43;3.38;;;1.77;;
22646;SDS011;11490;42.726;23.268;2022-11-20T01:36:09;4.22;;;1.50;;
22646;SDS011;11490;42.726;23.268;2022-11-20T01:38:35;2.00;;;1.60;;
22646;SDS011;11490;42.726;23.268;2022-11-20T01:41:01;2.60;;;1.95;;
22646;SDS011;11490;42.726;23.268;2022-11-20T01:43:27;4.35;;;1.55;;
22646;SDS011;11490;42.726;23.268;2022-11-20T01:48:19;1.58;;;1.13;;
22646;SDS011;11490;42.726;23.268;2022-11-20T01:50:48;1.83;;;1.33;;
22646;SDS011;11490;42.726;23.268;2022-11-20T01:53:15;1.13;;;1.02;;
22646;SDS011;11490;42.726;23.268;2022-11-20T01:55:50;1.75;;;1.38;;
22646;SDS011;11490;42.726;23.268;2022-11-20T01:58:19;1.02;;;0.90;;
22646;SDS011;11490;42.726;23.268;2022-11-20T02:00:46;2.00;;;1.17;;
22646;SDS011;11490;42.726;23.268;2022-11-20T02:03:16;1.95;;;1.23;;
22646;SDS011;11490;42.726;23.268;2022-11-20T02:08:46;3.05;;;1.95;;
22646;SDS011;11490;42.726;23.268;2022-11-20T02:11:12;2.58;;;1.40;;
22646;SDS011;11490;42.726;23.268;2022-11-20T02:13:38;1.50;;;1.27;;
22646;SDS011;11490;42.726;23.268;2022-11-20T02:18:44;4.05;;;1.60;;
22646;SDS011;11490;42.726;23.268;2022-11-20T02:26:25;4.38;;;1.23;;
22646;SDS011;11490;42.726;23.268;2022-11-20T02:28:54;1.23;;;1.00;;
22646;SDS011;11490;42.726;23.268;2022-11-20T02:31:20;4.35;;;2.10;;
22646;SDS011;11490;42.726;23.268;2022-11-20T02:33:46;1.15;;;1.02;;
22646;SDS011;11490;42.726;23.268;2022-11-20T02:36:11;2.75;;;1.35;;
22646;SDS011;11490;42.726;23.268;2022-11-20T02:38:40;3.63;;;1.30;;
22646;SDS011;11490;42.726;23.268;2022-11-20T02:41:07;3.08;;;1.42;;
22646;SDS011;11490;42.726;23.268;2022-11-20T02:43:32;1.80;;;1.10;;
22646;SDS011;11490;42.726;23.268;2022-11-20T02:45:57;5.55;;;1.73;;
22646;SDS011;11490;42.726;23.268;2022-11-20T02:48:23;1.27;;;1.00;;
22646;SDS011;11490;42.726;23.268;2022-11-20T02:50:48;6.97;;;1.85;;
22646;SDS011;11490;42.726;23.268;2022-11-20T02:53:13;1.77;;;1.35;;
22646;SDS011;11490;42.726;23.268;2022-11-20T02:55:39;2.08;;;1.25;;
22646;SDS011;11490;42.726;23.268;2022-11-20T02:58:04;4.45;;;1.50;;
22646;SDS011;11490;42.726;23.268;2022-11-20T03:00:30;7.70;;;1.45;;
22646;SDS011;11490;42.726;23.268;2022-11-20T03:02:55;5.50;;;1.83;;
22646;SDS011;11490;42.726;23.268;2022-11-20T03:05:21;4.30;;;1.23;;
22646;SDS011;11490;42.726;23.268;2022-11-20T03:07:46;2.63;;;1.40;;
22646;SDS011;11490;42.726;23.268;2022-11-20T03:10:11;7.65;;;1.65;;
22646;SDS011;11490;42.726;23.268;2022-11-20T03:12:37;3.50;;;1.75;;
22646;SDS011;11490;42.726;23.268;2022-11-20T03:15:02;1.10;;;1.00;;
22646;SDS011;11490;42.726;23.268;2022-11-20T03:17:28;2.53;;;1.90;;
22646;SDS011;11490;42.726;23.268;2022-11-20T03:19:54;4.90;;;1.60;;
22646;SDS011;11490;42.726;23.268;2022-11-20T03:22:19;3.35;;;1.83;;
22646;SDS011;11490;42.726;23.268;2022-11-20T03:24:45;1.77;;;1.25;;
22646;SDS011;11490;42.726;23.268;2022-11-20T03:27:11;3.50;;;1.38;;
22646;SDS011;11490;42.726;23.268;2022-11-20T03:29:36;3.83;;;1.58;;
22646;SDS011;11490;42.726;23.268;2022-11-20T03:32:01;3.10;;;1.30;;
22646;SDS011;11490;42.726;23.268;2022-11-20T03:34:27;3.42;;;1.85;;
22646;SDS011;11490;42.726;23.268;2022-11-20T03:36:52;2.85;;;1.88;;
22646;SDS011;11490;42.726;23.268;2022-11-20T03:39:17;2.45;;;1.50;;
22646;SDS011;11490;42.726;23.268;2022-11-20T03:41:43;1.95;;;1.35;;
22646;SDS011;11490;42.726;23.268;2022-11-20T03:44:09;4.05;;;1.77;;
22646;SDS011;11490;42.726;23.268;2022-11-20T03:46:35;2.67;;;1.35;;
22646;SDS011;11490;42.726;23.268;2022-11-20T03:49:01;1.77;;;1.23;;
22646;SDS011;11490;42.726;23.268;2022-11-20T03:51:31;1.55;;;1.27;;
22646;SDS011;11490;42.726;23.268;2022-11-20T03:53:58;1.95;;;1.50;;
22646;SDS011;11490;42.726;23.268;2022-11-20T03:56:26;3.78;;;1.50;;
22646;SDS011;11490;42.726;23.268;2022-11-20T03:58:54;2.10;;;1.27;;
22646;SDS011;11490;42.726;23.268;2022-11-20T04:01:23;5.13;;;1.60;;
22646;SDS011;11490;42.726;23.268;2022-11-20T04:04:01;3.35;;;1.55;;
22646;SDS011;11490;42.726;23.268;2022-11-20T04:06:37;7.63;;;1.88;;
22646;SDS011;11490;42.726;23.268;2022-11-20T04:09:03;3.33;;;1.40;;
22646;SDS011;11490;42.726;23.268;2022-11-20T04:11:30;4.47;;;2.08;;
22646;SDS011;11490;42.726;23.268;2022-11-20T04:14:01;1.80;;;1.38;;
22646;SDS011;11490;42.726;23.268;2022-11-20T04:16:29;3.35;;;1.45;;
22646;SDS011;11490;42.726;23.268;2022-11-20T04:18:58;15.35;;;8.52;;
22646;SDS011;11490;42.726;23.268;2022-11-20T04:21:25;3.35;;;1.67;;
22646;SDS011;11490;42.726;23.268;2022-11-20T04:23:51;1.58;;;1.42;;
22646;SDS011;11490;42.726;23.268;2022-11-20T04:26:18;3.08;;;1.35;;
22646;SDS011;11490;42.726;23.268;2022-11-20T04:28:44;3.28;;;1.50;;
22646;SDS011;11490;42.726;23.268;2022-11-20T04:31:13;4.13;;;1.80;;
22646;SDS011;11490;42.726;23.268;2022-11-20T04:33:40;3.80;;;1.80;;
22646;SDS011;11490;42.726;23.268;2022-11-20T04:36:16;3.00;;;1.40;;
22646;SDS011;11490;42.726;23.268;2022-11-20T04:38:44;2.00;;;1.38;;
22646;SDS011;11490;42.726;23.268;2022-11-20T04:41:13;1.35;;;1.25;;
22646;SDS011;11490;42.726;23.268;2022-11-20T04:43:40;1.58;;;1.20;;
22646;SDS011;11490;42.726;23.268;2022-11-20T04:46:05;1.15;;;1.02;;
22646;SDS011;11490;42.726;23.268;2022-11-20T04:48:31;2.50;;;1.23;;
22646;SDS011;11490;42.726;23.268;2022-11-20T04:50:56;1.63;;;1.10;;
22646;SDS011;11490;42.726;23.268;2022-11-20T04:53:22;1.65;;;1.27;;
22646;SDS011;11490;42.726;23.268;2022-11-20T04:55:48;1.30;;;1.20;;
22646;SDS011;11490;42.726;23.268;2022-11-20T04:58:14;1.38;;;1.27;;
22646;SDS011;11490;42.726;23.268;2022-11-20T05:00:40;1.52;;;1.00;;
22646;SDS011;11490;42.726;23.268;2022-11-20T05:03:05;1.60;;;1.20;;
22646;SDS011;11490;42.726;23.268;2022-11-20T05:05:32;1.55;;;1.30;;
22646;SDS011;11490;42.726;23.268;2022-11-20T05:07:59;1.20;;;1.00;;
22646;SDS011;11490;42.726;23.268;2022-11-20T05:10:25;1.33;;;1.20;;
22646;SDS011;11490;42.726;23.268;2022-11-20T05:12:51;2.90;;;1.33;;
22646;SDS011;11490;42.726;23.268;2022-11-20T05:15:17;4.32;;;2.00;;
22646;SDS011;11490;42.726;23.268;2022-11-20T05:17:49;1.63;;;1.50;;
22646;SDS011;11490;42.726;23.268;2022-11-20T05:20:15;2.10;;;1.30;;
22646;SDS011;11490;42.726;23.268;2022-11-20T05:22:40;1.73;;;1.33;;
22646;SDS011;11490;42.726;23.268;2022-11-20T05:25:05;1.30;;;1.05;;
22646;SDS011;11490;42.726;23.268;2022-11-20T05:27:31;2.50;;;1.20;;
22646;SDS011;11490;42.726;23.268;2022-11-20T05:29:57;1.40;;;1.10;;
22646;SDS011;11490;42.726;23.268;2022-11-20T05:32:22;3.97;;;1.70;;
22646;SDS011;11490;42.726;23.268;2022-11-20T05:34:50;2.10;;;1.17;;
22646;SDS011;11490;42.726;23.268;2022-11-20T05:37:16;2.00;;;1.42;;
22646;SDS011;11490;42.726;23.268;2022-11-20T05:39:41;1.38;;;1.27;;
22646;SDS011;11490;42.726;23.268;2022-11-20T05:42:07;2.40;;;1.75;;
22646;SDS011;11490;42.726;23.268;2022-11-20T05:44:50;13.40;;;1.35;;
22646;SDS011;11490;42.726;23.268;2022-11-20T05:47:16;1.25;;;1.15;;
22646;SDS011;11490;42.726;23.268;2022-11-20T05:49:41;3.30;;;1.27;;
22646;SDS011;11490;42.726;23.268;2022-11-20T05:52:06;1.50;;;1.40;;
22646;SDS011;11490;42.726;23.268;2022-11-20T05:54:32;3.08;;;1.20;;
22646;SDS011;11490;42.726;23.268;2022-11-20T05:56:57;1.65;;;1.30;;
22646;SDS011;11490;42.726;23.268;2022-11-20T05:59:22;4.05;;;2.60;;
22646;SDS011;11490;42.726;23.268;2022-11-20T06:01:48;3.95;;;2.80;;
22646;SDS011;11490;42.726;23.268;2022-11-20T06:04:13;1.98;;;1.42;;
22646;SDS011;11490;42.726;23.268;2022-11-20T06:06:39;1.80;;;0.93;;
22646;SDS011;11490;42.726;23.268;2022-11-20T06:09:04;1.63;;;1.10;;
22646;SDS011;11490;42.726;23.268;2022-11-20T06:11:29;1.45;;;1.35;;
22646;SDS011;11490;42.726;23.268;2022-11-20T06:13:55;7.50;;;1.83;;
22646;SDS011;11490;42.726;23.268;2022-11-20T06:16:20;7.32;;;3.20;;
22646;SDS011;11490;42.726;23.268;2022-11-20T06:18:46;9.48;;;5.93;;
22646;SDS011;11490;42.726;23.268;2022-11-20T06:21:13;7.82;;;3.78;;
22646;SDS011;11490;42.726;23.268;2022-11-20T06:23:41;5.07;;;2.97;;
22646;SDS011;11490;42.726;23.268;2022-11-20T06:26:08;3.83;;;2.00;;
22646;SDS011;11490;42.726;23.268;2022-11-20T06:28:42;3.33;;;1.58;;
22646;SDS011;11490;42.726;23.268;2022-11-20T06:31:09;2.92;;;1.67;;
22646;SDS011;11490;42.726;23.268;2022-11-20T06:33:36;1.83;;;1.38;;
22646;SDS011;11490;42.726;23.268;2022-11-20T06:36:02;3.13;;;2.17;;
22646;SDS011;11490;42.726;23.268;2022-11-20T06:38:28;5.85;;;2.15;;
22646;SDS011;11490;42.726;23.268;2022-11-20T06:40:54;7.53;;;3.47;;
22646;SDS011;11490;42.726;23.268;2022-11-20T06:43:20;6.50;;;3.55;;
22646;SDS011;11490;42.726;23.268;2022-11-20T06:45:50;3.10;;;2.00;;
22646;SDS011;11490;42.726;23.268;2022-11-20T06:48:17;4.70;;;3.22;;
22646;SDS011;11490;42.726;23.268;2022-11-20T06:50:42;3.83;;;2.55;;
22646;SDS011;11490;42.726;23.268;2022-11-20T06:53:07;2.28;;;1.58;;
22646;SDS011;11490;42.726;23.268;2022-11-20T06:55:33;2.92;;;1.60;;
22646;SDS011;11490;42.726;23.268;2022-11-20T06:57:58;4.15;;;2.00;;
22646;SDS011;11490;42.726;23.268;2022-11-20T07:00:24;1.65;;;1.30;;
22646;SDS011;11490;42.726;23.268;2022-11-20T07:02:49;7.85;;;1.98;;
22646;SDS011;11490;42.726;23.268;2022-11-20T07:05:15;2.45;;;1.98;;
22646;SDS011;11490;42.726;23.268;2022-11-20T07:07:40;3.92;;;2.17;;
22646;SDS011;11490;42.726;23.268;2022-11-20T07:10:06;4.93;;;1.98;;
22646;SDS011;11490;42.726;23.268;2022-11-20T07:12:32;4.70;;;1.80;;
22646;SDS011;11490;42.726;23.268;2022-11-20T07:14:57;5.18;;;2.28;;
22646;SDS011;11490;42.726;23.268;2022-11-20T07:17:23;3.42;;;2.13;;
22646;SDS011;11490;42.726;23.268;2022-11-20T07:19:48;9.77;;;5.40;;
22646;SDS011;11490;42.726;23.268;2022-11-20T07:22:13;11.60;;;4.10;;
22646;SDS011;11490;42.726;23.268;2022-11-20T07:24:39;2.40;;;1.73;;
22646;SDS011;11490;42.726;23.268;2022-11-20T07:27:04;4.43;;;2.13;;
22646;SDS011;11490;42.726;23.268;2022-11-20T07:29:30;3.65;;;1.58;;
22646;SDS011;11490;42.726;23.268;2022-11-20T07:31:56;6.13;;;1.90;;
22646;SDS011;11490;42.726;23.268;2022-11-20T07:34:21;5.20;;;4.35;;
22646;SDS011;11490;42.726;23.268;2022-11-20T07:36:47;6.68;;;2.80;;
22646;SDS011;11490;42.726;23.268;2022-11-20T07:39:13;2.40;;;1.50;;
22646;SDS011;11490;42.726;23.268;2022-11-20T07:41:38;2.17;;;1.65;;
22646;SDS011;11490;42.726;23.268;2022-11-20T07:44:04;3.40;;;1.58;;
22646;SDS011;11490;42.726;23.268;2022-11-20T07:46:30;2.47;;;1.80;;
22646;SDS011;11490;42.726;23.268;2022-11-20T07:48:55;5.10;;;1.90;;
22646;SDS011;11490;42.726;23.268;2022-11-20T07:51:21;2.05;;;1.20;;
22646;SDS011;11490;42.726;23.268;2022-11-20T07:53:46;3.28;;;1.65;;
22646;SDS011;11490;42.726;23.268;2022-11-20T07:56:12;8.32;;;3.28;;
22646;SDS011;11490;42.726;23.268;2022-11-20T07:58:39;4.53;;;2.70;;
22646;SDS011;11490;42.726;23.268;2022-11-20T08:01:08;9.68;;;4.07;;
22646;SDS011;11490;42.726;23.268;2022-11-20T08:03:33;7.95;;;3.40;;
22646;SDS011;11490;42.726;23.268;2022-11-20T08:05:59;11.45;;;4.97;;
22646;SDS011;11490;42.726;23.268;2022-11-20T08:08:25;8.25;;;3.33;;
22646;SDS011;11490;42.726;23.268;2022-11-20T08:10:52;4.97;;;2.22;;
22646;SDS011;11490;42.726;23.268;2022-11-20T08:13:17;7.00;;;2.38;;
22646;SDS011;11490;42.726;23.268;2022-11-20T08:16:01;4.20;;;2.30;;
22646;SDS011;11490;42.726;23.268;2022-11-20T08:18:26;5.05;;;2.60;;
22646;SDS011;11490;42.726;23.268;2022-11-20T08:20:52;2.85;;;1.80;;
22646;SDS011;11490;42.726;23.268;2022-11-20T08:23:17;6.45;;;1.10;;
22646;SDS011;11490;42.726;23.268;2022-11-20T08:25:42;9.52;;;2.10;;
22646;SDS011;11490;42.726;23.268;2022-11-20T08:28:08;10.68;;;2.15;;
22646;SDS011;11490;42.726;23.268;2022-11-20T08:30:35;3.85;;;1.80;;
22646;SDS011;11490;42.726;23.268;2022-11-20T08:33:02;2.55;;;1.70;;
22646;SDS011;11490;42.726;23.268;2022-11-20T08:35:32;5.25;;;1.50;;
22646;SDS011;11490;42.726;23.268;2022-11-20T08:41:15;1.48;;;1.30;;
22646;SDS011;11490;42.726;23.268;2022-11-20T08:44:09;3.22;;;2.00;;
22646;SDS011;11490;42.726;23.268;2022-11-20T08:47:03;3.58;;;2.08;;
22646;SDS011;11490;42.726;23.268;2022-11-20T08:50:04;6.47;;;1.58;;
22646;SDS011;11490;42.726;23.268;2022-11-20T08:52:40;9.38;;;2.78;;
22646;SDS011;11490;42.726;23.268;2022-11-20T08:55:32;6.40;;;3.08;;
22646;SDS011;11490;42.726;23.268;2022-11-20T08:58:08;7.10;;;2.70;;
22646;SDS011;11490;42.726;23.268;2022-11-20T09:00:34;4.90;;;2.53;;
22646;SDS011;11490;42.726;23.268;2022-11-20T09:02:59;3.40;;;2.10;;
22646;SDS011;11490;42.726;23.268;2022-11-20T09:05:26;8.90;;;2.60;;
22646;SDS011;11490;42.726;23.268;2022-11-20T09:07:51;3.50;;;2.42;;
22646;SDS011;11490;42.726;23.268;2022-11-20T09:10:17;3.78;;;2.40;;
22646;SDS011;11490;42.726;23.268;2022-11-20T09:12:42;5.25;;;2.63;;
22646;SDS011;11490;42.726;23.268;2022-11-20T09:15:07;3.05;;;1.83;;
22646;SDS011;11490;42.726;23.268;2022-11-20T09:17:33;8.82;;;2.10;;
22646;SDS011;11490;42.726;23.268;2022-11-20T09:19:59;12.93;;;2.40;;
22646;SDS011;11490;42.726;23.268;2022-11-20T09:22:24;7.13;;;2.40;;
22646;SDS011;11490;42.726;23.268;2022-11-20T09:24:49;7.53;;;2.45;;
22646;SDS011;11490;42.726;23.268;2022-11-20T09:27:15;5.75;;;2.70;;
22646;SDS011;11490;42.726;23.268;2022-11-20T09:29:45;5.22;;;2.95;;
22646;SDS011;11490;42.726;23.268;2022-11-20T09:32:10;7.95;;;3.10;;
22646;SDS011;11490;42.726;23.268;2022-11-20T09:34:36;4.47;;;2.55;;
22646;SDS011;11490;42.726;23.268;2022-11-20T09:37:01;3.70;;;2.60;;
22646;SDS011;11490;42.726;23.268;2022-11-20T09:39:27;6.80;;;2.20;;
22646;SDS011;11490;42.726;23.268;2022-11-20T09:50:23;3.15;;;2.10;;
22646;SDS011;11490;42.726;23.268;2022-11-20T09:55:31;2.65;;;2.08;;
22646;SDS011;11490;42.726;23.268;2022-11-20T09:57:57;5.47;;;3.20;;
22646;SDS011;11490;42.726;23.268;2022-11-20T10:00:24;7.35;;;3.05;;
22646;SDS011;11490;42.726;23.268;2022-11-20T10:02:53;8.48;;;2.50;;
22646;SDS011;11490;42.726;23.268;2022-11-20T10:05:45;4.20;;;2.10;;
22646;SDS011;11490;42.726;23.268;2022-11-20T10:10:47;10.63;;;4.75;;
22646;SDS011;11490;42.726;23.268;2022-11-20T10:15:52;2.67;;;2.00;;
22646;SDS011;11490;42.726;23.268;2022-11-20T10:29:32;6.70;;;3.60;;
22646;SDS011;11490;42.726;23.268;2022-11-20T10:32:18;20.15;;;10.15;;
22646;SDS011;11490;42.726;23.268;2022-11-20T10:37:23;11.02;;;6.47;;
22646;SDS011;11490;42.726;23.268;2022-11-20T10:40:11;4.68;;;2.70;;
22646;SDS011;11490;42.726;23.268;2022-11-20T10:42:59;5.50;;;3.40;;
22646;SDS011;11490;42.726;23.268;2022-11-20T10:45:35;11.38;;;4.30;;
22646;SDS011;11490;42.726;23.268;2022-11-20T10:59:04;6.97;;;2.47;;
22646;SDS011;11490;42.726;23.268;2022-11-20T11:01:53;7.63;;;3.10;;
22646;SDS011;11490;42.726;23.268;2022-11-20T11:07:10;6.45;;;1.95;;
22646;SDS011;11490;42.726;23.268;2022-11-20T11:09:42;9.25;;;2.80;;
22646;SDS011;11490;42.726;23.268;2022-11-20T11:12:11;5.68;;;2.10;;
22646;SDS011;11490;42.726;23.268;2022-11-20T11:14:43;1.67;;;1.48;;
22646;SDS011;11490;42.726;23.268;2022-11-20T11:19:59;2.67;;;1.55;;
22646;SDS011;11490;42.726;23.268;2022-11-20T11:22:46;4.55;;;2.45;;
22646;SDS011;11490;42.726;23.268;2022-11-20T11:25:21;3.22;;;2.35;;
22646;SDS011;11490;42.726;23.268;2022-11-20T11:27:59;3.58;;;2.22;;
22646;SDS011;11490;42.726;23.268;2022-11-20T11:30:29;3.85;;;1.58;;
22646;SDS011;11490;42.726;23.268;2022-11-20T11:33:06;4.18;;;2.20;;
22646;SDS011;11490;42.726;23.268;2022-11-20T11:35:39;2.50;;;1.45;;
22646;SDS011;11490;42.726;23.268;2022-11-20T11:38:12;6.25;;;1.98;;
22646;SDS011;11490;42.726;23.268;2022-11-20T11:40:44;8.77;;;2.35;;
22646;SDS011;11490;42.726;23.268;2022-11-20T11:43:25;3.22;;;2.00;;
22646;SDS011;11490;42.726;23.268;2022-11-20T11:46:25;4.50;;;2.03;;
22646;SDS011;11490;42.726;23.268;2022-11-20T11:48:58;7.55;;;2.05;;
22646;SDS011;11490;42.726;23.268;2022-11-20T12:00:08;2.92;;;1.65;;
22646;SDS011;11490;42.726;23.268;2022-11-20T12:07:56;1.63;;;1.38;;
22646;SDS011;11490;42.726;23.268;2022-11-20T12:15:40;9.93;;;3.00;;
22646;SDS011;11490;42.726;23.268;2022-11-20T12:18:13;4.95;;;2.60;;
22646;SDS011;11490;42.726;23.268;2022-11-20T12:20:45;6.40;;;2.22;;
22646;SDS011;11490;42.726;23.268;2022-11-20T12:23:26;6.70;;;4.20;;
22646;SDS011;11490;42.726;23.268;2022-11-20T12:26:00;7.78;;;2.38;;
22646;SDS011;11490;42.726;23.268;2022-11-20T12:34:10;7.72;;;4.32;;
22646;SDS011;11490;42.726;23.268;2022-11-20T12:36:45;10.30;;;3.83;;
22646;SDS011;11490;42.726;23.268;2022-11-20T12:51:04;5.53;;;3.55;;
22646;SDS011;11490;42.726;23.268;2022-11-20T13:02:23;10.52;;;4.00;;
22646;SDS011;11490;42.726;23.268;2022-11-20T13:07:25;11.43;;;4.40;;
22646;SDS011;11490;42.726;23.268;2022-11-20T13:09:53;17.23;;;5.25;;
22646;SDS011;11490;42.726;23.268;2022-11-20T13:12:27;5.72;;;3.00;;
22646;SDS011;11490;42.726;23.268;2022-11-20T13:20:22;5.47;;;4.05;;
22646;SDS011;11490;42.726;23.268;2022-11-20T13:22:49;84.65;;;24.38;;
22646;SDS011;11490;42.726;23.268;2022-11-20T13:25:25;63.20;;;21.50;;
22646;SDS011;11490;42.726;23.268;2022-11-20T13:27:53;10.80;;;6.22;;
22646;SDS011;11490;42.726;23.268;2022-11-20T13:30:20;20.25;;;11.05;;
22646;SDS011;11490;42.726;23.268;2022-11-20T13:32:56;12.20;;;6.88;;
22646;SDS011;11490;42.726;23.268;2022-11-20T13:35:55;17.17;;;7.65;;
22646;SDS011;11490;42.726;23.268;2022-11-20T13:38:22;12.60;;;4.70;;
22646;SDS011;11490;42.726;23.268;2022-11-20T13:40:55;7.80;;;5.22;;
22646;SDS011;11490;42.726;23.268;2022-11-20T13:43:36;9.60;;;5.50;;
22646;SDS011;11490;42.726;23.268;2022-11-20T13:46:06;9.63;;;4.47;;
22646;SDS011;11490;42.726;23.268;2022-11-20T13:48:40;17.08;;;7.75;;
22646;SDS011;11490;42.726;23.268;2022-11-20T14:00:23;7.65;;;4.93;;
22646;SDS011;11490;42.726;23.268;2022-11-20T14:03:09;10.63;;;5.30;;
22646;SDS011;11490;42.726;23.268;2022-11-20T14:05:52;10.52;;;5.28;;
22646;SDS011;11490;42.726;23.268;2022-11-20T14:08:31;9.38;;;4.40;;
22646;SDS011;11490;42.726;23.268;2022-11-20T14:11:05;13.23;;;5.43;;
22646;SDS011;11490;42.726;23.268;2022-11-20T14:14:15;6.10;;;3.70;;
22646;SDS011;11490;42.726;23.268;2022-11-20T14:16:43;5.47;;;3.25;;
22646;SDS011;11490;42.726;23.268;2022-11-20T14:22:09;9.77;;;4.72;;
22646;SDS011;11490;42.726;23.268;2022-11-20T14:27:56;5.63;;;2.80;;
22646;SDS011;11490;42.726;23.268;2022-11-20T14:30:24;7.25;;;3.65;;
22646;SDS011;11490;42.726;23.268;2022-11-20T14:32:53;6.35;;;3.95;;
22646;SDS011;11490;42.726;23.268;2022-11-20T14:35:23;3.50;;;2.63;;
22646;SDS011;11490;42.726;23.268;2022-11-20T14:37:54;6.13;;;3.05;;
22646;SDS011;11490;42.726;23.268;2022-11-20T14:40:31;6.55;;;2.85;;
22646;SDS011;11490;42.726;23.268;2022-11-20T14:43:00;6.68;;;2.60;;
22646;SDS011;11490;42.726;23.268;2022-11-20T14:45:26;4.65;;;2.53;;
22646;SDS011;11490;42.726;23.268;2022-11-20T14:47:53;8.73;;;3.85;;
22646;SDS011;11490;42.726;23.268;2022-11-20T14:50:25;5.68;;;4.10;;
22646;SDS011;11490;42.726;23.268;2022-11-20T14:55:28;28.45;;;11.45;;
22646;SDS011;11490;42.726;23.268;2022-11-20T14:58:00;23.05;;;11.45;;
22646;SDS011;11490;42.726;23.268;2022-11-20T15:00:31;17.27;;;8.82;;
22646;SDS011;11490;42.726;23.268;2022-11-20T15:02:58;14.32;;;7.55;;
22646;SDS011;11490;42.726;23.268;2022-11-20T15:05:25;22.20;;;10.05;;
22646;SDS011;11490;42.726;23.268;2022-11-20T15:08:09;14.32;;;6.93;;
22646;SDS011;11490;42.726;23.268;2022-11-20T15:10:35;8.02;;;4.72;;
22646;SDS011;11490;42.726;23.268;2022-11-20T15:13:10;11.70;;;5.97;;
22646;SDS011;11490;42.726;23.268;2022-11-20T15:15:48;11.10;;;6.35;;
22646;SDS011;11490;42.726;23.268;2022-11-20T15:18:16;7.30;;;4.90;;
22646;SDS011;11490;42.726;23.268;2022-11-20T15:20:47;17.98;;;9.25;;
22646;SDS011;11490;42.726;23.268;2022-11-20T15:23:17;17.67;;;9.35;;
22646;SDS011;11490;42.726;23.268;2022-11-20T15:25:43;20.05;;;9.52;;
22646;SDS011;11490;42.726;23.268;2022-11-20T15:30:55;11.10;;;6.38;;
22646;SDS011;11490;42.726;23.268;2022-11-20T15:33:21;7.90;;;4.43;;
22646;SDS011;11490;42.726;23.268;2022-11-20T15:35:46;9.27;;;5.35;;
22646;SDS011;11490;42.726;23.268;2022-11-20T15:38:12;8.30;;;4.50;;
22646;SDS011;11490;42.726;23.268;2022-11-20T15:40:37;13.55;;;4.35;;
22646;SDS011;11490;42.726;23.268;2022-11-20T15:43:03;10.02;;;3.88;;
22646;SDS011;11490;42.726;23.268;2022-11-20T15:45:29;8.70;;;3.65;;
22646;SDS011;11490;42.726;23.268;2022-11-20T15:47:58;10.27;;;5.70;;
22646;SDS011;11490;42.726;23.268;2022-11-20T15:50:25;8.00;;;4.78;;
22646;SDS011;11490;42.726;23.268;2022-11-20T15:52:54;10.05;;;5.30;;
22646;SDS011;11490;42.726;23.268;2022-11-20T15:55:19;18.02;;;6.28;;
22646;SDS011;11490;42.726;23.268;2022-11-20T15:57:44;10.00;;;5.53;;
22646;SDS011;11490;42.726;23.268;2022-11-20T16:00:10;11.77;;;6.07;;
22646;SDS011;11490;42.726;23.268;2022-11-20T16:02:36;10.98;;;4.78;;
22646;SDS011;11490;42.726;23.268;2022-11-20T16:05:02;11.02;;;5.82;;
22646;SDS011;11490;42.726;23.268;2022-11-20T16:07:29;7.22;;;4.32;;
22646;SDS011;11490;42.726;23.268;2022-11-20T16:09:55;9.18;;;5.10;;
22646;SDS011;11490;42.726;23.268;2022-11-20T16:12:21;17.63;;;10.90;;
22646;SDS011;11490;42.726;23.268;2022-11-20T16:15:16;10.43;;;7.20;;
22646;SDS011;11490;42.726;23.268;2022-11-20T16:18:00;10.70;;;6.47;;
22646;SDS011;11490;42.726;23.268;2022-11-20T16:20:25;9.70;;;5.95;;
22646;SDS011;11490;42.726;23.268;2022-11-20T16:22:50;69.30;;;22.52;;
22646;SDS011;11490;42.726;23.268;2022-11-20T16:25:16;15.70;;;6.78;;
22646;SDS011;11490;42.726;23.268;2022-11-20T16:27:41;15.32;;;7.40;;
22646;SDS011;11490;42.726;23.268;2022-11-20T16:30:07;18.27;;;7.60;;
22646;SDS011;11490;42.726;23.268;2022-11-20T16:32:33;19.77;;;13.32;;
22646;SDS011;11490;42.726;23.268;2022-11-20T16:34:58;10.68;;;7.05;;
22646;SDS011;11490;42.726;23.268;2022-11-20T16:37:24;13.68;;;7.72;;
22646;SDS011;11490;42.726;23.268;2022-11-20T16:39:49;8.40;;;5.97;;
22646;SDS011;11490;42.726;23.268;2022-11-20T16:42:15;8.52;;;6.03;;
22646;SDS011;11490;42.726;23.268;2022-11-20T16:44:40;9.23;;;5.15;;
22646;SDS011;11490;42.726;23.268;2022-11-20T16:47:05;6.72;;;4.70;;
22646;SDS011;11490;42.726;23.268;2022-11-20T16:49:31;15.77;;;8.13;;
22646;SDS011;11490;42.726;23.268;2022-11-20T16:51:57;13.25;;;8.30;;
22646;SDS011;11490;42.726;23.268;2022-11-20T16:54:23;10.00;;;7.15;;
22646;SDS011;11490;42.726;23.268;2022-11-20T16:56:48;13.30;;;8.07;;
22646;SDS011;11490;42.726;23.268;2022-11-20T16:59:15;16.70;;;8.20;;